sensor_id;sensor_type;location;lat;lon;timestamp;P1;durP1;ratioP1;P2;durP2;ratioP2
61025;SDS011;46911;32.650;-16.902;2023-05-29T00:00:01;11.20;;;2.00;;
61025;SDS011;46911;32.650;-16.902;2023-05-29T00:02:10;11.50;;;2.10;;
61025;SDS011;46911;32.650;-16.902;2023-05-29T00:04:15;6.22;;;1.48;;
61025;SDS011;46911;32.650;-16.902;2023-05-29T00:06:16;4.07;;;1.38;;
61025;SDS011;46911;32.650;-16.902;2023-05-29T00:08:19;8.80;;;1.58;;
61025;SDS011;46911;32.650;-16.902;2023-05-29T00:10:19;6.75;;;1.45;;
61025;SDS011;46911;32.650;-16.902;2023-05-29T00:12:26;6.97;;;1.88;;
61025;SDS011;46911;32.650;-16.902;2023-05-29T00:14:29;6.47;;;1.65;;
61025;SDS011;46911;32.650;-16.902;2023-05-29T00:16:32;9.05;;;1.60;;
61025;SDS011;46911;32.650;-16.902;2023-05-29T00:18:37;15.52;;;1.75;;
61025;SDS011;46911;32.650;-16.902;2023-05-29T00:20:45;8.55;;;1.77;;
61025;SDS011;46911;32.650;-16.902;2023-05-29T00:22:46;5.45;;;1.42;;
61025;SDS011;46911;32.650;-16.902;2023-05-29T00:24:47;6.40;;;1.48;;
61025;SDS011;46911;32.650;-16.902;2023-05-29T00:26:50;5.53;;;1.65;;
61025;SDS011;46911;32.650;-16.902;2023-05-29T00:28:53;8.02;;;1.35;;
61025;SDS011;46911;32.650;-16.902;2023-05-29T00:30:54;8.40;;;1.65;;
61025;SDS011;46911;32.650;-16.902;2023-05-29T00:32:55;4.13;;;1.40;;
61025;SDS011;46911;32.650;-16.902;2023-05-29T00:34:59;6.20;;;1.80;;
61025;SDS011;46911;32.650;-16.902;2023-05-29T00:37:03;5.13;;;1.70;;
61025;SDS011;46911;32.650;-16.902;2023-05-29T00:39:04;2.50;;;1.20;;
61025;SDS011;46911;32.650;-16.902;2023-05-29T00:41:08;8.55;;;1.58;;
61025;SDS011;46911;32.650;-16.902;2023-05-29T00:43:15;14.48;;;1.35;;
61025;SDS011;46911;32.650;-16.902;2023-05-29T00:45:16;4.70;;;1.48;;
61025;SDS011;46911;32.650;-16.902;2023-05-29T00:47:20;4.78;;;1.58;;
61025;SDS011;46911;32.650;-16.902;2023-05-29T00:49:22;6.22;;;1.95;;
61025;SDS011;46911;32.650;-16.902;2023-05-29T00:51:23;9.88;;;1.77;;
61025;SDS011;46911;32.650;-16.902;2023-05-29T00:53:25;12.63;;;2.15;;
61025;SDS011;46911;32.650;-16.902;2023-05-29T00:55:29;4.35;;;1.30;;
61025;SDS011;46911;32.650;-16.902;2023-05-29T00:57:33;6.10;;;1.40;;
61025;SDS011;46911;32.650;-16.902;2023-05-29T00:59:37;7.80;;;1.45;;
61025;SDS011;46911;32.650;-16.902;2023-05-29T01:01:42;4.85;;;1.40;;
61025;SDS011;46911;32.650;-16.902;2023-05-29T01:03:43;5.30;;;1.17;;
61025;SDS011;46911;32.650;-16.902;2023-05-29T01:05:49;5.53;;;1.50;;
61025;SDS011;46911;32.650;-16.902;2023-05-29T01:07:53;7.55;;;2.13;;
61025;SDS011;46911;32.650;-16.902;2023-05-29T01:09:54;7.28;;;1.70;;
61025;SDS011;46911;32.650;-16.902;2023-05-29T01:14:02;4.05;;;1.42;;
61025;SDS011;46911;32.650;-16.902;2023-05-29T01:16:30;7.47;;;1.63;;
61025;SDS011;46911;32.650;-16.902;2023-05-29T01:18:51;5.30;;;1.60;;
61025;SDS011;46911;32.650;-16.902;2023-05-29T01:21:11;5.47;;;1.17;;
61025;SDS011;46911;32.650;-16.902;2023-05-29T01:25:19;8.48;;;1.40;;
61025;SDS011;46911;32.650;-16.902;2023-05-29T01:27:42;4.28;;;1.05;;
61025;SDS011;46911;32.650;-16.902;2023-05-29T01:29:49;10.45;;;2.17;;
61025;SDS011;46911;32.650;-16.902;2023-05-29T01:31:53;8.27;;;2.50;;
61025;SDS011;46911;32.650;-16.902;2023-05-29T01:34:00;6.78;;;1.45;;
61025;SDS011;46911;32.650;-16.902;2023-05-29T01:36:03;3.67;;;1.13;;
61025;SDS011;46911;32.650;-16.902;2023-05-29T01:38:06;4.47;;;1.48;;
61025;SDS011;46911;32.650;-16.902;2023-05-29T01:40:09;8.20;;;1.30;;
61025;SDS011;46911;32.650;-16.902;2023-05-29T01:42:11;9.05;;;1.58;;
61025;SDS011;46911;32.650;-16.902;2023-05-29T01:44:13;6.85;;;1.08;;
61025;SDS011;46911;32.650;-16.902;2023-05-29T01:46:20;3.72;;;1.20;;
61025;SDS011;46911;32.650;-16.902;2023-05-29T01:48:26;5.78;;;1.23;;
61025;SDS011;46911;32.650;-16.902;2023-05-29T01:50:34;2.35;;;0.98;;
61025;SDS011;46911;32.650;-16.902;2023-05-29T01:52:41;4.00;;;1.40;;
61025;SDS011;46911;32.650;-16.902;2023-05-29T01:54:42;6.13;;;1.20;;
61025;SDS011;46911;32.650;-16.902;2023-05-29T01:56:46;6.28;;;1.23;;
61025;SDS011;46911;32.650;-16.902;2023-05-29T01:58:54;3.47;;;1.40;;
61025;SDS011;46911;32.650;-16.902;2023-05-29T02:00:59;4.10;;;1.38;;
61025;SDS011;46911;32.650;-16.902;2023-05-29T02:03:04;7.45;;;1.50;;
61025;SDS011;46911;32.650;-16.902;2023-05-29T02:05:08;6.97;;;1.50;;
61025;SDS011;46911;32.650;-16.902;2023-05-29T02:07:16;4.30;;;1.27;;
61025;SDS011;46911;32.650;-16.902;2023-05-29T02:09:17;7.38;;;1.75;;
61025;SDS011;46911;32.650;-16.902;2023-05-29T02:11:22;5.95;;;1.50;;
61025;SDS011;46911;32.650;-16.902;2023-05-29T02:13:27;2.53;;;1.20;;
61025;SDS011;46911;32.650;-16.902;2023-05-29T02:15:27;3.97;;;1.70;;
61025;SDS011;46911;32.650;-16.902;2023-05-29T02:17:29;6.00;;;1.63;;
61025;SDS011;46911;32.650;-16.902;2023-05-29T02:19:34;5.15;;;1.02;;
61025;SDS011;46911;32.650;-16.902;2023-05-29T02:21:39;11.63;;;1.48;;
61025;SDS011;46911;32.650;-16.902;2023-05-29T02:23:43;9.93;;;1.92;;
61025;SDS011;46911;32.650;-16.902;2023-05-29T02:25:47;8.30;;;1.83;;
61025;SDS011;46911;32.650;-16.902;2023-05-29T02:27:50;4.82;;;1.50;;
61025;SDS011;46911;32.650;-16.902;2023-05-29T02:30:03;6.25;;;1.75;;
61025;SDS011;46911;32.650;-16.902;2023-05-29T02:32:05;6.22;;;1.48;;
61025;SDS011;46911;32.650;-16.902;2023-05-29T02:34:07;6.82;;;1.52;;
61025;SDS011;46911;32.650;-16.902;2023-05-29T02:36:13;7.72;;;1.60;;
61025;SDS011;46911;32.650;-16.902;2023-05-29T02:38:14;7.47;;;1.58;;
61025;SDS011;46911;32.650;-16.902;2023-05-29T02:40:16;7.25;;;2.15;;
61025;SDS011;46911;32.650;-16.902;2023-05-29T02:42:17;5.30;;;1.42;;
61025;SDS011;46911;32.650;-16.902;2023-05-29T02:44:18;9.95;;;1.88;;
61025;SDS011;46911;32.650;-16.902;2023-05-29T02:46:28;8.20;;;1.63;;
61025;SDS011;46911;32.650;-16.902;2023-05-29T02:48:32;9.43;;;1.60;;
61025;SDS011;46911;32.650;-16.902;2023-05-29T02:50:35;13.00;;;2.15;;
61025;SDS011;46911;32.650;-16.902;2023-05-29T02:52:38;11.43;;;2.00;;
61025;SDS011;46911;32.650;-16.902;2023-05-29T02:54:42;9.80;;;2.10;;
61025;SDS011;46911;32.650;-16.902;2023-05-29T02:56:43;13.80;;;3.10;;
61025;SDS011;46911;32.650;-16.902;2023-05-29T02:58:44;14.80;;;3.42;;
61025;SDS011;46911;32.650;-16.902;2023-05-29T03:00:48;12.43;;;2.10;;
61025;SDS011;46911;32.650;-16.902;2023-05-29T03:02:53;25.80;;;3.08;;
61025;SDS011;46911;32.650;-16.902;2023-05-29T03:04:56;17.15;;;2.58;;
61025;SDS011;46911;32.650;-16.902;2023-05-29T03:07:00;20.48;;;2.90;;
61025;SDS011;46911;32.650;-16.902;2023-05-29T03:09:05;12.43;;;2.28;;
61025;SDS011;46911;32.650;-16.902;2023-05-29T03:11:07;14.93;;;2.38;;
61025;SDS011;46911;32.650;-16.902;2023-05-29T03:13:11;9.35;;;2.10;;
61025;SDS011;46911;32.650;-16.902;2023-05-29T03:15:24;17.27;;;2.97;;
61025;SDS011;46911;32.650;-16.902;2023-05-29T03:17:24;34.08;;;2.78;;
61025;SDS011;46911;32.650;-16.902;2023-05-29T03:19:28;22.58;;;3.90;;
61025;SDS011;46911;32.650;-16.902;2023-05-29T03:21:31;51.63;;;4.78;;
61025;SDS011;46911;32.650;-16.902;2023-05-29T03:23:33;24.30;;;4.30;;
61025;SDS011;46911;32.650;-16.902;2023-05-29T03:25:39;38.70;;;3.75;;
61025;SDS011;46911;32.650;-16.902;2023-05-29T03:27:43;30.25;;;5.50;;
61025;SDS011;46911;32.650;-16.902;2023-05-29T03:29:51;32.63;;;4.97;;
61025;SDS011;46911;32.650;-16.902;2023-05-29T03:31:55;27.75;;;4.47;;
61025;SDS011;46911;32.650;-16.902;2023-05-29T03:34:01;24.38;;;3.83;;
61025;SDS011;46911;32.650;-16.902;2023-05-29T03:36:16;24.30;;;3.65;;
61025;SDS011;46911;32.650;-16.902;2023-05-29T03:38:22;32.05;;;3.70;;
61025;SDS011;46911;32.650;-16.902;2023-05-29T03:40:31;16.80;;;3.22;;
61025;SDS011;46911;32.650;-16.902;2023-05-29T03:42:35;19.83;;;3.35;;
61025;SDS011;46911;32.650;-16.902;2023-05-29T03:44:38;27.85;;;3.17;;
61025;SDS011;46911;32.650;-16.902;2023-05-29T03:46:43;16.30;;;3.13;;
61025;SDS011;46911;32.650;-16.902;2023-05-29T03:48:50;19.83;;;2.78;;
61025;SDS011;46911;32.650;-16.902;2023-05-29T03:50:54;13.27;;;2.88;;
61025;SDS011;46911;32.650;-16.902;2023-05-29T03:53:02;12.98;;;2.25;;
61025;SDS011;46911;32.650;-16.902;2023-05-29T03:55:08;12.75;;;1.85;;
61025;SDS011;46911;32.650;-16.902;2023-05-29T03:57:13;4.45;;;1.67;;
61025;SDS011;46911;32.650;-16.902;2023-05-29T03:59:19;4.95;;;1.63;;
61025;SDS011;46911;32.650;-16.902;2023-05-29T04:01:21;6.32;;;1.73;;
61025;SDS011;46911;32.650;-16.902;2023-05-29T04:03:22;3.58;;;1.60;;
61025;SDS011;46911;32.650;-16.902;2023-05-29T04:05:29;8.93;;;1.98;;
61025;SDS011;46911;32.650;-16.902;2023-05-29T04:07:35;8.05;;;1.90;;
61025;SDS011;46911;32.650;-16.902;2023-05-29T04:09:39;5.32;;;1.65;;
61025;SDS011;46911;32.650;-16.902;2023-05-29T04:11:42;8.50;;;1.98;;
61025;SDS011;46911;32.650;-16.902;2023-05-29T04:13:45;7.82;;;1.83;;
61025;SDS011;46911;32.650;-16.902;2023-05-29T04:15:48;5.15;;;1.95;;
61025;SDS011;46911;32.650;-16.902;2023-05-29T04:17:53;13.77;;;1.73;;
61025;SDS011;46911;32.650;-16.902;2023-05-29T04:19:56;7.90;;;1.63;;
61025;SDS011;46911;32.650;-16.902;2023-05-29T04:21:57;9.70;;;1.73;;
61025;SDS011;46911;32.650;-16.902;2023-05-29T04:23:58;11.82;;;1.60;;
61025;SDS011;46911;32.650;-16.902;2023-05-29T04:26:02;3.33;;;1.45;;
61025;SDS011;46911;32.650;-16.902;2023-05-29T04:28:10;9.23;;;1.70;;
61025;SDS011;46911;32.650;-16.902;2023-05-29T04:30:15;6.38;;;2.60;;
61025;SDS011;46911;32.650;-16.902;2023-05-29T04:32:21;7.13;;;2.00;;
61025;SDS011;46911;32.650;-16.902;2023-05-29T04:34:25;12.88;;;2.53;;
61025;SDS011;46911;32.650;-16.902;2023-05-29T04:36:25;10.85;;;2.10;;
61025;SDS011;46911;32.650;-16.902;2023-05-29T04:38:40;9.80;;;2.63;;
61025;SDS011;46911;32.650;-16.902;2023-05-29T04:40:48;15.27;;;2.90;;
61025;SDS011;46911;32.650;-16.902;2023-05-29T04:42:53;17.08;;;6.13;;
61025;SDS011;46911;32.650;-16.902;2023-05-29T04:44:57;19.20;;;4.97;;
61025;SDS011;46911;32.650;-16.902;2023-05-29T04:47:01;13.85;;;5.47;;
61025;SDS011;46911;32.650;-16.902;2023-05-29T04:49:06;19.38;;;4.80;;
61025;SDS011;46911;32.650;-16.902;2023-05-29T04:51:10;26.83;;;4.40;;
61025;SDS011;46911;32.650;-16.902;2023-05-29T04:53:12;26.83;;;3.10;;
61025;SDS011;46911;32.650;-16.902;2023-05-29T04:55:17;28.67;;;3.78;;
61025;SDS011;46911;32.650;-16.902;2023-05-29T04:57:21;19.17;;;2.92;;
61025;SDS011;46911;32.650;-16.902;2023-05-29T04:59:25;16.25;;;3.25;;
61025;SDS011;46911;32.650;-16.902;2023-05-29T05:01:30;16.83;;;2.95;;
61025;SDS011;46911;32.650;-16.902;2023-05-29T05:03:34;11.32;;;2.72;;
61025;SDS011;46911;32.650;-16.902;2023-05-29T05:05:37;16.55;;;2.30;;
61025;SDS011;46911;32.650;-16.902;2023-05-29T05:07:50;9.18;;;2.42;;
61025;SDS011;46911;32.650;-16.902;2023-05-29T05:09:54;11.73;;;2.03;;
61025;SDS011;46911;32.650;-16.902;2023-05-29T05:11:59;5.28;;;2.03;;
61025;SDS011;46911;32.650;-16.902;2023-05-29T05:14:04;9.07;;;1.67;;
61025;SDS011;46911;32.650;-16.902;2023-05-29T05:16:05;9.65;;;1.88;;
61025;SDS011;46911;32.650;-16.902;2023-05-29T05:18:12;6.57;;;1.70;;
61025;SDS011;46911;32.650;-16.902;2023-05-29T05:20:19;7.95;;;1.30;;
61025;SDS011;46911;32.650;-16.902;2023-05-29T05:22:27;10.55;;;1.83;;
61025;SDS011;46911;32.650;-16.902;2023-05-29T05:24:28;11.68;;;1.83;;
61025;SDS011;46911;32.650;-16.902;2023-05-29T05:26:30;10.95;;;1.80;;
61025;SDS011;46911;32.650;-16.902;2023-05-29T05:28:34;11.20;;;2.05;;
61025;SDS011;46911;32.650;-16.902;2023-05-29T05:30:35;5.20;;;1.70;;
61025;SDS011;46911;32.650;-16.902;2023-05-29T05:32:37;14.65;;;1.83;;
61025;SDS011;46911;32.650;-16.902;2023-05-29T05:34:40;11.15;;;2.03;;
61025;SDS011;46911;32.650;-16.902;2023-05-29T05:36:42;13.45;;;2.22;;
61025;SDS011;46911;32.650;-16.902;2023-05-29T05:38:47;12.18;;;1.92;;
61025;SDS011;46911;32.650;-16.902;2023-05-29T05:40:49;12.13;;;2.08;;
61025;SDS011;46911;32.650;-16.902;2023-05-29T05:42:57;10.88;;;2.28;;
61025;SDS011;46911;32.650;-16.902;2023-05-29T05:45:14;9.15;;;1.98;;
61025;SDS011;46911;32.650;-16.902;2023-05-29T05:47:18;11.00;;;2.17;;
61025;SDS011;46911;32.650;-16.902;2023-05-29T05:49:20;11.95;;;2.00;;
61025;SDS011;46911;32.650;-16.902;2023-05-29T05:51:21;10.32;;;2.97;;
61025;SDS011;46911;32.650;-16.902;2023-05-29T05:53:22;15.40;;;2.38;;
61025;SDS011;46911;32.650;-16.902;2023-05-29T05:55:23;16.48;;;2.58;;
61025;SDS011;46911;32.650;-16.902;2023-05-29T05:57:27;14.45;;;2.90;;
61025;SDS011;46911;32.650;-16.902;2023-05-29T05:59:30;9.20;;;2.17;;
61025;SDS011;46911;32.650;-16.902;2023-05-29T06:01:34;17.20;;;1.90;;
61025;SDS011;46911;32.650;-16.902;2023-05-29T06:03:36;6.70;;;1.90;;
61025;SDS011;46911;32.650;-16.902;2023-05-29T06:05:42;6.32;;;1.67;;
61025;SDS011;46911;32.650;-16.902;2023-05-29T06:07:45;12.63;;;1.88;;
61025;SDS011;46911;32.650;-16.902;2023-05-29T06:09:49;6.45;;;1.70;;
61025;SDS011;46911;32.650;-16.902;2023-05-29T06:11:53;5.57;;;1.60;;
61025;SDS011;46911;32.650;-16.902;2023-05-29T06:13:56;6.15;;;1.83;;
61025;SDS011;46911;32.650;-16.902;2023-05-29T06:16:02;10.73;;;2.00;;
61025;SDS011;46911;32.650;-16.902;2023-05-29T06:18:05;8.93;;;2.00;;
61025;SDS011;46911;32.650;-16.902;2023-05-29T06:20:08;7.00;;;1.40;;
61025;SDS011;46911;32.650;-16.902;2023-05-29T06:22:16;8.80;;;1.95;;
61025;SDS011;46911;32.650;-16.902;2023-05-29T06:24:24;6.88;;;1.60;;
61025;SDS011;46911;32.650;-16.902;2023-05-29T06:26:25;7.80;;;2.13;;
61025;SDS011;46911;32.650;-16.902;2023-05-29T06:28:28;13.00;;;2.28;;
61025;SDS011;46911;32.650;-16.902;2023-05-29T06:30:30;4.20;;;1.60;;
61025;SDS011;46911;32.650;-16.902;2023-05-29T06:32:36;9.30;;;1.98;;
61025;SDS011;46911;32.650;-16.902;2023-05-29T06:34:37;6.85;;;2.35;;
61025;SDS011;46911;32.650;-16.902;2023-05-29T06:36:37;10.88;;;1.92;;
61025;SDS011;46911;32.650;-16.902;2023-05-29T06:38:50;10.10;;;2.60;;
61025;SDS011;46911;32.650;-16.902;2023-05-29T06:40:57;6.00;;;2.28;;
61025;SDS011;46911;32.650;-16.902;2023-05-29T06:43:07;13.35;;;2.63;;
61025;SDS011;46911;32.650;-16.902;2023-05-29T06:45:12;4.60;;;2.15;;
61025;SDS011;46911;32.650;-16.902;2023-05-29T06:47:16;15.93;;;2.08;;
61025;SDS011;46911;32.650;-16.902;2023-05-29T06:49:19;10.45;;;2.58;;
61025;SDS011;46911;32.650;-16.902;2023-05-29T06:51:20;6.13;;;2.20;;
61025;SDS011;46911;32.650;-16.902;2023-05-29T06:53:23;10.73;;;2.20;;
61025;SDS011;46911;32.650;-16.902;2023-05-29T06:55:27;16.98;;;2.58;;
61025;SDS011;46911;32.650;-16.902;2023-05-29T06:57:31;14.60;;;2.28;;
61025;SDS011;46911;32.650;-16.902;2023-05-29T06:59:32;7.95;;;2.08;;
61025;SDS011;46911;32.650;-16.902;2023-05-29T07:01:38;12.10;;;1.80;;
61025;SDS011;46911;32.650;-16.902;2023-05-29T07:03:42;6.97;;;2.38;;
61025;SDS011;46911;32.650;-16.902;2023-05-29T07:05:44;9.50;;;2.60;;
61025;SDS011;46911;32.650;-16.902;2023-05-29T07:07:49;11.13;;;2.22;;
61025;SDS011;46911;32.650;-16.902;2023-05-29T07:09:52;10.45;;;2.97;;
61025;SDS011;46911;32.650;-16.902;2023-05-29T07:11:53;11.02;;;3.08;;
61025;SDS011;46911;32.650;-16.902;2023-05-29T07:13:56;8.82;;;3.10;;
61025;SDS011;46911;32.650;-16.902;2023-05-29T07:16:00;8.90;;;2.47;;
61025;SDS011;46911;32.650;-16.902;2023-05-29T07:18:07;19.85;;;2.63;;
61025;SDS011;46911;32.650;-16.902;2023-05-29T07:20:10;11.88;;;2.83;;
61025;SDS011;46911;32.650;-16.902;2023-05-29T07:22:12;11.73;;;2.55;;
61025;SDS011;46911;32.650;-16.902;2023-05-29T07:24:13;12.05;;;2.55;;
61025;SDS011;46911;32.650;-16.902;2023-05-29T07:26:15;11.02;;;2.88;;
61025;SDS011;46911;32.650;-16.902;2023-05-29T07:28:16;19.92;;;2.97;;
61025;SDS011;46911;32.650;-16.902;2023-05-29T07:30:17;12.43;;;3.03;;
61025;SDS011;46911;32.650;-16.902;2023-05-29T07:32:21;14.00;;;2.65;;
61025;SDS011;46911;32.650;-16.902;2023-05-29T07:34:24;14.65;;;2.90;;
61025;SDS011;46911;32.650;-16.902;2023-05-29T07:36:29;13.48;;;3.35;;
61025;SDS011;46911;32.650;-16.902;2023-05-29T07:38:38;13.23;;;3.33;;
61025;SDS011;46911;32.650;-16.902;2023-05-29T07:40:39;7.28;;;2.58;;
61025;SDS011;46911;32.650;-16.902;2023-05-29T07:42:45;8.75;;;2.28;;
61025;SDS011;46911;32.650;-16.902;2023-05-29T07:44:47;11.23;;;2.45;;
61025;SDS011;46911;32.650;-16.902;2023-05-29T07:46:53;8.55;;;2.30;;
61025;SDS011;46911;32.650;-16.902;2023-05-29T07:49:15;9.63;;;2.10;;
61025;SDS011;46911;32.650;-16.902;2023-05-29T07:51:22;10.32;;;2.15;;
61025;SDS011;46911;32.650;-16.902;2023-05-29T07:53:28;11.30;;;2.08;;
61025;SDS011;46911;32.650;-16.902;2023-05-29T07:55:30;10.23;;;2.40;;
61025;SDS011;46911;32.650;-16.902;2023-05-29T07:57:31;9.80;;;2.35;;
61025;SDS011;46911;32.650;-16.902;2023-05-29T07:59:44;14.10;;;2.10;;
61025;SDS011;46911;32.650;-16.902;2023-05-29T08:01:50;10.43;;;2.30;;
61025;SDS011;46911;32.650;-16.902;2023-05-29T08:04:13;13.75;;;2.25;;
61025;SDS011;46911;32.650;-16.902;2023-05-29T08:06:16;10.77;;;2.92;;
61025;SDS011;46911;32.650;-16.902;2023-05-29T08:08:20;13.30;;;4.00;;
61025;SDS011;46911;32.650;-16.902;2023-05-29T08:10:24;10.07;;;1.98;;
61025;SDS011;46911;32.650;-16.902;2023-05-29T08:12:28;9.60;;;2.90;;
61025;SDS011;46911;32.650;-16.902;2023-05-29T08:14:31;7.25;;;2.25;;
61025;SDS011;46911;32.650;-16.902;2023-05-29T08:16:34;8.93;;;2.60;;
61025;SDS011;46911;32.650;-16.902;2023-05-29T08:18:35;11.70;;;2.45;;
61025;SDS011;46911;32.650;-16.902;2023-05-29T08:20:36;13.30;;;2.53;;
61025;SDS011;46911;32.650;-16.902;2023-05-29T08:22:37;10.68;;;2.67;;
61025;SDS011;46911;32.650;-16.902;2023-05-29T08:24:41;15.70;;;2.67;;
61025;SDS011;46911;32.650;-16.902;2023-05-29T08:26:42;8.25;;;2.45;;
61025;SDS011;46911;32.650;-16.902;2023-05-29T08:28:43;18.40;;;2.67;;
61025;SDS011;46911;32.650;-16.902;2023-05-29T08:30:45;10.82;;;2.65;;
61025;SDS011;46911;32.650;-16.902;2023-05-29T08:32:46;19.30;;;2.60;;
61025;SDS011;46911;32.650;-16.902;2023-05-29T08:34:47;10.95;;;2.83;;
61025;SDS011;46911;32.650;-16.902;2023-05-29T08:36:48;13.77;;;2.95;;
61025;SDS011;46911;32.650;-16.902;2023-05-29T08:38:55;11.50;;;2.50;;
61025;SDS011;46911;32.650;-16.902;2023-05-29T08:40:59;12.52;;;2.72;;
61025;SDS011;46911;32.650;-16.902;2023-05-29T08:43:02;20.13;;;3.45;;
61025;SDS011;46911;32.650;-16.902;2023-05-29T08:45:15;8.57;;;2.15;;
61025;SDS011;46911;32.650;-16.902;2023-05-29T08:47:21;14.07;;;2.05;;
61025;SDS011;46911;32.650;-16.902;2023-05-29T08:49:26;13.50;;;1.95;;
61025;SDS011;46911;32.650;-16.902;2023-05-29T08:51:37;11.32;;;2.38;;
61025;SDS011;46911;32.650;-16.902;2023-05-29T08:53:43;11.60;;;2.60;;
61025;SDS011;46911;32.650;-16.902;2023-05-29T08:55:47;16.02;;;3.17;;
61025;SDS011;46911;32.650;-16.902;2023-05-29T08:57:53;12.77;;;2.20;;
61025;SDS011;46911;32.650;-16.902;2023-05-29T08:59:59;10.57;;;2.75;;
61025;SDS011;46911;32.650;-16.902;2023-05-29T09:02:00;17.13;;;2.38;;
61025;SDS011;46911;32.650;-16.902;2023-05-29T09:04:07;11.32;;;2.25;;
61025;SDS011;46911;32.650;-16.902;2023-05-29T09:06:08;17.90;;;2.60;;
61025;SDS011;46911;32.650;-16.902;2023-05-29T09:08:12;10.70;;;2.13;;
61025;SDS011;46911;32.650;-16.902;2023-05-29T09:10:14;11.02;;;1.95;;
61025;SDS011;46911;32.650;-16.902;2023-05-29T09:12:15;11.82;;;2.10;;
61025;SDS011;46911;32.650;-16.902;2023-05-29T09:14:36;13.45;;;1.92;;
61025;SDS011;46911;32.650;-16.902;2023-05-29T09:16:41;10.68;;;2.35;;
61025;SDS011;46911;32.650;-16.902;2023-05-29T09:18:47;9.35;;;1.95;;
61025;SDS011;46911;32.650;-16.902;2023-05-29T09:20:53;13.23;;;1.90;;
61025;SDS011;46911;32.650;-16.902;2023-05-29T09:23:01;12.23;;;1.83;;
61025;SDS011;46911;32.650;-16.902;2023-05-29T09:25:05;10.75;;;2.10;;
61025;SDS011;46911;32.650;-16.902;2023-05-29T09:27:07;7.13;;;1.88;;
61025;SDS011;46911;32.650;-16.902;2023-05-29T09:29:15;9.13;;;2.08;;
61025;SDS011;46911;32.650;-16.902;2023-05-29T09:31:16;10.40;;;2.03;;
61025;SDS011;46911;32.650;-16.902;2023-05-29T09:33:17;11.55;;;1.75;;
61025;SDS011;46911;32.650;-16.902;2023-05-29T09:35:23;10.40;;;2.20;;
61025;SDS011;46911;32.650;-16.902;2023-05-29T09:37:27;8.70;;;1.70;;
61025;SDS011;46911;32.650;-16.902;2023-05-29T09:39:30;8.43;;;2.05;;
61025;SDS011;46911;32.650;-16.902;2023-05-29T09:41:31;6.18;;;1.38;;
61025;SDS011;46911;32.650;-16.902;2023-05-29T09:43:32;11.45;;;1.55;;
61025;SDS011;46911;32.650;-16.902;2023-05-29T09:45:38;9.07;;;2.40;;
61025;SDS011;46911;32.650;-16.902;2023-05-29T09:47:43;7.13;;;1.67;;
61025;SDS011;46911;32.650;-16.902;2023-05-29T09:49:50;9.95;;;1.90;;
61025;SDS011;46911;32.650;-16.902;2023-05-29T09:51:53;15.88;;;2.30;;
61025;SDS011;46911;32.650;-16.902;2023-05-29T09:53:55;14.27;;;1.73;;
61025;SDS011;46911;32.650;-16.902;2023-05-29T09:55:56;8.30;;;1.90;;
61025;SDS011;46911;32.650;-16.902;2023-05-29T09:57:59;15.60;;;1.95;;
61025;SDS011;46911;32.650;-16.902;2023-05-29T10:00:04;12.60;;;1.83;;
61025;SDS011;46911;32.650;-16.902;2023-05-29T10:02:13;15.25;;;1.90;;
61025;SDS011;46911;32.650;-16.902;2023-05-29T10:04:17;10.93;;;1.88;;
61025;SDS011;46911;32.650;-16.902;2023-05-29T10:06:20;15.32;;;2.15;;
61025;SDS011;46911;32.650;-16.902;2023-05-29T10:08:24;8.10;;;2.10;;
61025;SDS011;46911;32.650;-16.902;2023-05-29T10:10:34;8.98;;;2.05;;
61025;SDS011;46911;32.650;-16.902;2023-05-29T10:12:41;10.25;;;1.88;;
61025;SDS011;46911;32.650;-16.902;2023-05-29T10:16:56;19.08;;;1.90;;
61025;SDS011;46911;32.650;-16.902;2023-05-29T10:19:04;9.45;;;1.92;;
61025;SDS011;46911;32.650;-16.902;2023-05-29T10:21:16;10.02;;;1.98;;
61025;SDS011;46911;32.650;-16.902;2023-05-29T10:23:23;15.93;;;1.85;;
61025;SDS011;46911;32.650;-16.902;2023-05-29T10:25:30;9.73;;;2.03;;
61025;SDS011;46911;32.650;-16.902;2023-05-29T10:27:36;8.30;;;1.98;;
61025;SDS011;46911;32.650;-16.902;2023-05-29T10:29:39;9.63;;;2.00;;
61025;SDS011;46911;32.650;-16.902;2023-05-29T10:36:30;10.30;;;1.73;;
61025;SDS011;46911;32.650;-16.902;2023-05-29T10:38:41;7.32;;;2.08;;
61025;SDS011;46911;32.650;-16.902;2023-05-29T10:40:52;9.75;;;1.90;;
61025;SDS011;46911;32.650;-16.902;2023-05-29T10:42:53;7.65;;;2.33;;
61025;SDS011;46911;32.650;-16.902;2023-05-29T10:44:58;6.07;;;1.40;;
61025;SDS011;46911;32.650;-16.902;2023-05-29T10:49:00;11.48;;;1.98;;
61025;SDS011;46911;32.650;-16.902;2023-05-29T10:51:05;18.98;;;2.15;;
61025;SDS011;46911;32.650;-16.902;2023-05-29T10:53:14;10.27;;;2.00;;
61025;SDS011;46911;32.650;-16.902;2023-05-29T10:57:22;6.85;;;1.90;;
61025;SDS011;46911;32.650;-16.902;2023-05-29T10:59:29;13.07;;;1.75;;
61025;SDS011;46911;32.650;-16.902;2023-05-29T11:01:39;5.80;;;1.75;;
61025;SDS011;46911;32.650;-16.902;2023-05-29T11:03:40;9.73;;;1.88;;
61025;SDS011;46911;32.650;-16.902;2023-05-29T11:06:00;8.82;;;1.92;;
61025;SDS011;46911;32.650;-16.902;2023-05-29T11:08:12;7.15;;;1.58;;
61025;SDS011;46911;32.650;-16.902;2023-05-29T11:10:16;11.70;;;2.28;;
61025;SDS011;46911;32.650;-16.902;2023-05-29T11:12:23;6.30;;;1.77;;
61025;SDS011;46911;32.650;-16.902;2023-05-29T11:14:43;12.65;;;3.15;;
61025;SDS011;46911;32.650;-16.902;2023-05-29T11:16:45;10.68;;;2.00;;
61025;SDS011;46911;32.650;-16.902;2023-05-29T11:18:47;11.43;;;1.77;;
61025;SDS011;46911;32.650;-16.902;2023-05-29T11:20:53;7.18;;;1.60;;
61025;SDS011;46911;32.650;-16.902;2023-05-29T11:25:01;7.80;;;1.92;;
61025;SDS011;46911;32.650;-16.902;2023-05-29T11:27:10;8.82;;;2.15;;
61025;SDS011;46911;32.650;-16.902;2023-05-29T11:29:15;9.18;;;2.13;;
61025;SDS011;46911;32.650;-16.902;2023-05-29T11:31:23;11.38;;;2.28;;
61025;SDS011;46911;32.650;-16.902;2023-05-29T11:33:32;19.33;;;2.92;;
61025;SDS011;46911;32.650;-16.902;2023-05-29T11:35:40;9.80;;;2.43;;
61025;SDS011;46911;32.650;-16.902;2023-05-29T11:37:45;12.13;;;1.95;;
61025;SDS011;46911;32.650;-16.902;2023-05-29T11:39:47;13.30;;;3.30;;
61025;SDS011;46911;32.650;-16.902;2023-05-29T11:41:50;7.45;;;2.13;;
61025;SDS011;46911;32.650;-16.902;2023-05-29T11:43:56;11.55;;;2.38;;
61025;SDS011;46911;32.650;-16.902;2023-05-29T11:48:43;8.60;;;1.92;;
61025;SDS011;46911;32.650;-16.902;2023-05-29T11:50:49;12.25;;;2.78;;
61025;SDS011;46911;32.650;-16.902;2023-05-29T11:52:53;9.98;;;2.10;;
61025;SDS011;46911;32.650;-16.902;2023-05-29T11:55:05;17.90;;;2.55;;
61025;SDS011;46911;32.650;-16.902;2023-05-29T11:57:08;12.35;;;2.15;;
61025;SDS011;46911;32.650;-16.902;2023-05-29T11:59:11;13.00;;;2.50;;
61025;SDS011;46911;32.650;-16.902;2023-05-29T12:01:12;9.45;;;2.00;;
61025;SDS011;46911;32.650;-16.902;2023-05-29T12:03:21;12.60;;;2.88;;
61025;SDS011;46911;32.650;-16.902;2023-05-29T12:05:22;14.45;;;2.53;;
61025;SDS011;46911;32.650;-16.902;2023-05-29T12:07:23;8.73;;;2.28;;
61025;SDS011;46911;32.650;-16.902;2023-05-29T12:09:25;6.50;;;2.55;;
61025;SDS011;46911;32.650;-16.902;2023-05-29T12:11:26;8.38;;;2.40;;
61025;SDS011;46911;32.650;-16.902;2023-05-29T12:13:30;13.10;;;3.40;;
61025;SDS011;46911;32.650;-16.902;2023-05-29T12:15:31;11.98;;;2.55;;
61025;SDS011;46911;32.650;-16.902;2023-05-29T12:17:34;10.65;;;3.08;;
61025;SDS011;46911;32.650;-16.902;2023-05-29T12:19:36;13.65;;;2.58;;
61025;SDS011;46911;32.650;-16.902;2023-05-29T12:21:40;9.70;;;2.67;;
61025;SDS011;46911;32.650;-16.902;2023-05-29T12:23:43;11.20;;;3.20;;